createdAt,value
2022-09-25T00:02:55.082Z,11.82
2022-09-25T00:07:56.951Z,11.82
2022-09-25T00:12:58.300Z,11.82
2022-09-25T00:17:59.681Z,11.81
2022-09-25T00:23:01.776Z,11.8
2022-09-25T00:28:03.266Z,11.79
2022-09-25T00:33:05.166Z,11.78
2022-09-25T00:38:07.312Z,11.77
2022-09-25T00:43:09.038Z,11.76
2022-09-25T00:48:10.278Z,11.75
2022-09-25T00:53:11.499Z,11.74
2022-09-25T00:58:13.259Z,11.72
2022-09-25T01:03:15.416Z,11.71
2022-09-25T01:08:16.892Z,11.7
2022-09-25T01:13:18.941Z,11.68
2022-09-25T01:18:20.365Z,11.65
2022-09-25T01:23:22.323Z,11.64
2022-09-25T01:28:24.061Z,11.61
2022-09-25T01:33:26.035Z,11.59
2022-09-25T01:38:27.926Z,11.53
2022-09-25T01:43:29.761Z,11.52
2022-09-25T01:48:31.493Z,11.51
2022-09-25T01:53:33.245Z,11.48
2022-09-25T01:58:34.647Z,11.46
2022-09-25T02:03:36.160Z,11.32
2022-09-25T02:08:37.384Z,11.26
2022-09-25T02:13:39.316Z,11.26
2022-09-25T02:18:40.771Z,11.26
2022-09-25T02:23:42.789Z,11.26
2022-09-25T02:28:44.351Z,11.25
2022-09-25T02:33:45.870Z,11.23
2022-09-25T02:38:47.678Z,11.21
2022-09-25T02:43:49.500Z,11.19
2022-09-25T02:48:51.493Z,11.18
2022-09-25T02:53:52.884Z,11.15
2022-09-25T02:58:54.910Z,11.14
2022-09-25T03:03:56.915Z,11.13
2022-09-25T03:08:58.136Z,11.1
2022-09-25T03:13:59.424Z,11.07
2022-09-25T03:19:00.992Z,11.06
2022-09-25T03:24:03.089Z,11.04
2022-09-25T03:29:04.516Z,11.04
2022-09-25T03:34:06.545Z,11.01
2022-09-25T03:39:07.735Z,10.98
2022-09-25T03:44:08.963Z,10.96
2022-09-25T03:49:11.077Z,10.94
2022-09-25T03:54:12.555Z,10.91
2022-09-25T03:59:14.561Z,10.9
2022-09-25T04:04:15.918Z,10.9
2022-09-25T04:09:17.366Z,10.9
2022-09-25T04:14:19.093Z,10.88
2022-09-25T04:19:20.435Z,10.87
2022-09-25T04:24:21.754Z,10.85
2022-09-25T04:29:23.226Z,10.85
2022-09-25T04:34:25.233Z,10.83
2022-09-25T04:39:26.663Z,10.82
2022-09-25T04:44:28.028Z,10.81
2022-09-25T04:49:29.393Z,10.79
2022-09-25T04:54:31.263Z,10.78
2022-09-25T04:59:33.053Z,10.73
2022-09-25T05:04:34.745Z,10.7
2022-09-25T05:09:36.065Z,10.7
2022-09-25T05:14:37.630Z,10.67
2022-09-25T05:19:39.479Z,10.64
2022-09-25T05:24:41.531Z,10.6
2022-09-25T05:29:43.121Z,10.56
2022-09-25T05:34:45.195Z,10.53
2022-09-25T05:39:46.942Z,10.52
2022-09-25T05:44:48.928Z,10.52
2022-09-25T05:49:50.542Z,10.52
2022-09-25T05:54:58.274Z,10.48
2022-09-25T06:00:00.195Z,10.49
2022-09-25T06:05:02.046Z,10.5
2022-09-25T06:10:03.215Z,10.5
2022-09-25T06:15:05.131Z,10.5
2022-09-25T06:20:08.874Z,10.48
2022-09-25T06:25:08.805Z,10.5
2022-09-25T06:30:10.378Z,10.51
2022-09-25T06:35:11.750Z,10.51
2022-09-25T06:40:12.943Z,10.54
2022-09-25T06:45:14.897Z,10.57
2022-09-25T06:50:16.669Z,10.6
2022-09-25T06:55:18.207Z,10.63
2022-09-25T07:00:19.690Z,10.68
2022-09-25T07:05:20.949Z,10.73
2022-09-25T07:10:22.467Z,10.77
2022-09-25T07:15:24.182Z,10.8
2022-09-25T07:20:25.742Z,10.81
2022-09-25T07:25:27.193Z,10.83
2022-09-25T07:30:28.686Z,10.85
2022-09-25T07:35:30.289Z,10.88
2022-09-25T07:40:31.622Z,10.94
2022-09-25T07:45:32.925Z,10.98
2022-09-25T07:50:34.365Z,11
2022-09-25T07:55:36.026Z,11.07
2022-09-25T08:00:38.009Z,11.15
2022-09-25T08:05:39.844Z,11.26
2022-09-25T08:10:41.984Z,11.34
2022-09-25T08:15:43.385Z,11.32
2022-09-25T08:20:44.920Z,11.34
2022-09-25T08:25:46.294Z,11.38
2022-09-25T08:30:48.558Z,11.55
2022-09-25T08:35:50.017Z,11.57
2022-09-25T08:40:51.943Z,11.51
2022-09-25T08:45:53.572Z,11.55
2022-09-25T08:50:55.557Z,11.66
2022-09-25T08:55:56.834Z,11.77
2022-09-25T09:00:58.243Z,11.8
2022-09-25T09:05:59.573Z,11.87
2022-09-25T09:11:01.738Z,11.81
2022-09-25T09:16:03.875Z,11.95
2022-09-25T09:21:05.109Z,12.09
2022-09-25T09:26:07.072Z,12.22
2022-09-25T09:31:08.489Z,12.27
2022-09-25T09:36:10.288Z,12.36
2022-09-25T09:41:11.657Z,12.41
2022-09-25T09:46:12.950Z,12.48
2022-09-25T09:51:14.076Z,12.58
2022-09-25T09:56:15.825Z,12.75
2022-09-25T10:01:36.953Z,12.79
2022-09-25T10:06:22.548Z,12.92
2022-09-25T10:11:21.305Z,12.97
2022-09-25T10:16:22.801Z,12.82
2022-09-25T10:21:24.167Z,12.9
2022-09-25T10:26:26.049Z,12.86
2022-09-25T10:31:27.952Z,13.02
2022-09-25T10:36:29.258Z,13.18
2022-09-25T10:41:30.724Z,13.21
2022-09-25T10:46:32.141Z,13.25
2022-09-25T10:51:33.542Z,13.35
2022-09-25T10:56:35.018Z,13.49
2022-09-25T11:01:37.343Z,13.67
2022-09-25T11:06:38.414Z,13.91
2022-09-25T11:11:39.670Z,13.91
2022-09-25T11:16:41.732Z,14.01
2022-09-25T11:21:43.498Z,13.94
2022-09-25T11:26:45.005Z,14.13
2022-09-25T11:31:46.674Z,14.43
2022-09-25T11:36:48.552Z,14.43
2022-09-25T11:41:49.847Z,14.7
2022-09-25T11:46:51.613Z,14.83
2022-09-25T11:51:53.114Z,14.87
2022-09-25T11:56:54.936Z,14.75
2022-09-25T12:01:56.507Z,14.67
2022-09-25T12:06:58.390Z,14.41
2022-09-25T12:12:00.162Z,14.6
2022-09-25T12:17:01.976Z,14.64
2022-09-25T12:22:03.172Z,14.64
2022-09-25T12:27:04.866Z,14.82
2022-09-25T12:32:06.359Z,14.71
2022-09-25T12:42:09.406Z,14.76
2022-09-25T12:47:11.486Z,14.77
2022-09-25T12:52:13.065Z,14.86
2022-09-25T12:57:14.802Z,14.93
2022-09-25T13:42:29.768Z,14.52
2022-09-25T13:47:31.276Z,14.46
2022-09-25T13:57:34.680Z,14.35
2022-09-25T14:02:36.511Z,14.25
2022-09-25T14:22:42.750Z,14.11
2022-09-25T14:27:44.038Z,14.1
2022-09-25T14:37:47.166Z,14.14
2022-09-25T14:42:48.932Z,14.16
2022-09-25T14:47:50.648Z,14.2
2022-09-25T14:52:52.801Z,14.36
2022-09-25T14:57:54.840Z,14.47
2022-09-25T15:02:56.822Z,14.51
2022-09-25T15:07:57.898Z,14.58
2022-09-25T15:12:59.421Z,14.58
2022-09-25T15:18:00.750Z,14.62
2022-09-25T15:23:02.229Z,14.63
2022-09-25T15:28:03.501Z,14.54
2022-09-25T15:33:04.846Z,14.46
2022-09-25T15:38:06.269Z,14.41
2022-09-25T15:43:08.339Z,14.31
2022-09-25T15:48:09.854Z,14.23
2022-09-25T15:53:11.017Z,14.11
2022-09-25T15:58:12.461Z,14.06
2022-09-25T16:03:14.487Z,13.97
2022-09-25T16:08:16.241Z,13.91
2022-09-25T16:13:17.911Z,13.81
2022-09-25T16:18:20.104Z,13.73
2022-09-25T16:23:21.889Z,13.64
2022-09-25T16:28:23.382Z,13.53
2022-09-25T16:33:24.780Z,13.44
2022-09-25T16:38:26.404Z,13.35
2022-09-25T16:43:28.203Z,13.24
2022-09-25T16:48:29.726Z,13.14
2022-09-25T16:53:31.711Z,13.02
2022-09-25T16:58:33.010Z,12.89
2022-09-25T17:03:34.573Z,12.76
2022-09-25T17:08:36.470Z,12.66
2022-09-25T17:13:38.027Z,12.54
2022-09-25T17:18:39.548Z,12.44
2022-09-25T17:23:41.685Z,12.36
2022-09-25T17:28:43.528Z,12.28
2022-09-25T17:33:45.455Z,12.22
2022-09-25T17:38:47.315Z,12.17
2022-09-25T17:43:48.675Z,12.13
2022-09-25T17:48:54.379Z,12.08
2022-09-25T17:53:52.521Z,12.03
2022-09-25T17:58:54.744Z,11.98
2022-09-25T18:03:56.691Z,11.94
2022-09-25T18:08:58.170Z,11.91
2022-09-25T18:14:00.109Z,11.86
2022-09-25T18:19:01.733Z,11.81
2022-09-25T18:24:03.228Z,11.76
2022-09-25T18:29:04.902Z,11.71
2022-09-25T18:34:06.295Z,11.63
2022-09-25T18:39:07.475Z,11.54
2022-09-25T18:44:09.088Z,11.47
2022-09-25T18:49:11.054Z,11.42
2022-09-25T18:54:13.056Z,11.36
2022-09-25T18:59:19.948Z,11.31
2022-09-25T19:04:16.799Z,11.27
2022-09-25T19:09:18.418Z,11.24
2022-09-25T19:14:19.570Z,11.22
2022-09-25T19:19:21.255Z,11.21
2022-09-25T19:24:22.743Z,11.2
2022-09-25T19:29:32.537Z,11.19
2022-09-25T19:34:26.437Z,11.21
2022-09-25T19:39:28.035Z,11.24
2022-09-25T19:44:29.428Z,11.25
2022-09-25T19:49:30.828Z,11.24
2022-09-25T19:54:32.049Z,11.24
2022-09-25T19:59:33.553Z,11.25
2022-09-25T20:04:34.880Z,11.25
2022-09-25T20:09:39.823Z,11.25
2022-09-25T20:14:38.667Z,11.26
2022-09-25T20:19:40.482Z,11.28
2022-09-25T20:24:42.593Z,11.29
2022-09-25T20:29:44.191Z,11.31
2022-09-25T20:34:45.743Z,11.33
2022-09-25T20:39:46.963Z,11.38
2022-09-25T20:44:48.518Z,11.39
2022-09-25T20:49:49.967Z,11.4
2022-09-25T20:54:51.138Z,11.41
2022-09-25T20:59:52.947Z,11.42
2022-09-25T21:04:54.682Z,11.42
2022-09-25T21:09:56.608Z,11.42
2022-09-25T21:14:58.322Z,11.41
2022-09-25T21:20:00.476Z,11.4
2022-09-25T21:25:02.442Z,11.38
2022-09-25T21:30:04.265Z,11.38
2022-09-25T21:35:06.083Z,11.35
2022-09-25T21:40:07.427Z,11.31
2022-09-25T21:45:09.375Z,11.27
2022-09-25T21:50:10.832Z,11.26
2022-09-25T21:55:12.143Z,11.24
2022-09-25T22:15:17.934Z,11.17
2022-09-25T22:20:19.763Z,11.15
2022-09-25T22:25:21.392Z,11.14
2022-09-25T22:30:23.473Z,11.12
2022-09-25T22:35:25.078Z,11.11
2022-09-25T22:40:32.889Z,11.09
2022-09-25T22:45:34.421Z,11.07
2022-09-25T22:50:35.915Z,11.04
2022-09-25T22:55:37.769Z,11.01
2022-09-25T23:00:39.077Z,10.95
2022-09-25T23:05:40.656Z,10.88
2022-09-25T23:11:02.910Z,10.78
2022-09-25T23:15:44.034Z,10.72
2022-09-25T23:20:45.342Z,10.66
2022-09-25T23:25:46.954Z,10.61
2022-09-25T23:30:48.511Z,10.55
2022-09-25T23:35:50.393Z,10.51
2022-09-25T23:40:52.197Z,10.49
2022-09-25T23:45:54.025Z,10.46
2022-09-25T23:50:55.126Z,10.39
2022-09-25T23:55:56.531Z,10.35
